Station: Dalwallinu  

  Atmospheric Gas Attenuation - ITU Rec 676-11   ----------------- dB/100km -----------------
Date Time Temp RH % AH g/m3 Dew Point Wind Direction Speed kph Gust kph Barometer mB Rainfall Since 9am 24GHz 47GHz 76GHz 122GHz 134GHz 241GHz
08/05 09:30 16.1 57 7.81 7.6 32 43 1029.2 0 17.8 24.6 36.3 94.9 86.7 297.8
08/05 09:20 15.4 58 7.62 7.2 33 39 1029.2 0 17.4 24.5 35.9 93.8 85.1 292.0
08/05 09:10 14.8 59 7.47 6.9 30 33 1029.3 0 17.1 24.4 35.6 93.0 83.9 287.5
08/05 09:00 14.4 59 7.29 6.5 33 41 1029.3 0 16.8 24.2 35.1 91.6 82.0 281.0
08/05 08:50 14.2 60 7.33 6.6 30 33 1029.4 0 16.9 24.4 35.3 92.2 82.7 283.5
08/05 08:40 14.1 60 7.28 6.5 28 33 1029.4 0 16.8 24.3 35.2 91.9 82.2 281.6
08/05 08:30 13.8 61 7.27 6.4 24 30 1029.4 0 16.7 24.4 35.3 92.1 82.4 282.2
08/05 08:20 13.3 63 7.28 6.4 24 30 1029.3 0 16.8 24.5 35.5 92.8 83.0 284.4
08/05 08:10 13 64 7.26 6.4 19 20 1029.3 0 16.8 24.6 35.6 92.9 83.1 284.6
08/05 08:00 12.5 67 7.37 6.5 20 28 1029.3 0 17.0 24.9 36.2 94.7 85.1 291.4
08/05 07:50 12 68 7.25 6.3 20 24 1029.2 0 16.8 24.8 36.0 94.0 84.0 287.7
08/05 07:40 11.5 70 7.23 6.2 20 24 1029.1 0 16.8 24.9 36.1 94.3 84.3 288.6
08/05 07:30 10.9 74 7.36 6.5 13 20 1029 0 17.1 25.3 36.9 96.4 86.7 296.8
08/05 07:20 9.5 77 7.01 5.7 9 11 1029 0 16.4 25.1 36.1 94.4 83.5 285.7
08/05 07:10 9 78 6.88 5.4 11 13 1028.9 0 16.1 25.1 35.8 93.5 82.3 281.4
08/05 07:00 8.7 79 6.83 5.3 11 15 1028.9 0 16.0 25.1 35.8 93.4 82.0 280.1
08/05 06:50 8.1 80 6.66 4.9 13 15 1028.7 0 15.7 24.9 35.3 92.2 80.3 274.2
08/05 06:40 8.1 80 6.66 4.9 13 15 1028.6 0 15.7 24.9 35.3 92.2 80.3 274.1
08/05 06:30 8 80 6.62 4.8 13 15 1028.5 0 15.6 24.9 35.2 91.9 79.9 272.6
08/05 06:20 8.4 79 6.7 5 15 15 1028.6 0 15.8 24.9 35.4 92.3 80.5 275.0
08/05 06:10 8.5 79 6.75 5.1 15 19 1028.5 0 15.9 25.0 35.5 92.7 81.1 276.9
08/05 06:00 8.3 78 6.58 4.7 15 19 1028.5 0 15.5 24.7 34.9 91.1 79.0 269.7
08/05 05:50 8.7 77 6.66 4.9 13 15 1028.4 0 15.7 24.8 35.0 91.5 79.7 272.0
08/05 05:40 9 76 6.7 5 15 17 1028.5 0 15.7 24.7 35.1 91.6 79.9 272.9
08/05 05:30 9.4 75 6.79 5.2 15 20 1028.5 0 15.9 24.8 35.3 92.1 80.7 275.7
08/05 05:20 9.7 74 6.82 5.3 17 19 1028.5 0 16.0 24.8 35.3 92.0 80.8 276.0
08/05 05:10 9.8 74 6.87 5.4 17 20 1028.5 0 16.1 24.8 35.4 92.5 81.3 278.0
08/05 05:00 9.9 73 6.82 5.3 15 20 1028.4 0 16.0 24.7 35.2 91.8 80.6 275.3
08/05 04:50 10.3 72 6.9 5.5 17 19 1028.3 0 16.1 24.7 35.3 92.2 81.2 277.5
08/05 04:40 10.4 72 6.94 5.6 19 20 1028.2 0 16.2 24.7 35.4 92.5 81.6 279.0
08/05 04:30 10.4 72 6.94 5.6 17 22 1028.1 0 16.2 24.7 35.4 92.5 81.6 279.0
08/05 04:20 10.2 71 6.76 5.2 17 19 1028 0 15.8 24.5 34.8 90.8 79.4 271.4
08/05 04:10 10.5 71 6.89 5.5 19 24 1028 0 16.1 24.6 35.2 91.8 80.8 276.3
08/05 04:00 10.7 70 6.88 5.5 19 26 1027.8 0 16.0 24.5 35.0 91.5 80.5 275.1
08/05 03:50 10.8 69 6.82 5.3 20 24 1028 0 15.9 24.4 34.8 90.7 79.6 272.1
08/05 03:40 10.9 69 6.86 5.4 19 22 1027.9 0 16.0 24.5 34.9 91.0 80.0 273.5
08/05 03:30 11.1 68 6.85 5.4 19 24 1028 0 16.0 24.4 34.7 90.7 79.7 272.4
08/05 03:20 11 68 6.81 5.3 19 20 1028.1 0 15.9 24.4 34.6 90.4 79.3 271.0
08/05 03:10 11.1 67 6.75 5.2 19 22 1028 0 15.8 24.2 34.4 89.6 78.4 267.9
08/05 03:00 11.2 67 6.79 5.3 20 28 1028 0 15.8 24.3 34.5 90.0 78.8 269.4
08/05 02:50 10.9 68 6.77 5.2 19 20 1028 0 15.8 24.3 34.5 90.1 78.9 269.5
08/05 02:40 11 68 6.81 5.3 19 20 1028 0 15.9 24.4 34.6 90.4 79.3 270.9
08/05 02:30 11.6 66 6.86 5.5 20 28 1028 0 16.0 24.3 34.6 90.2 79.3 271.2
08/05 02:20 11.4 67 6.88 5.5 22 24 1028 0 16.0 24.4 34.7 90.7 79.8 272.8
08/05 02:10 10.9 69 6.86 5.4 19 20 1028.1 0 16.0 24.5 34.9 91.0 80.0 273.6
08/05 02:00 10.6 69 6.74 5.2 17 20 1028.1 0 15.8 24.4 34.5 90.1 78.8 269.1
08/05 01:50 10.6 69 6.74 5.2 17 19 1028.1 0 15.8 24.4 34.5 90.1 78.8 269.1
08/05 01:40 10.7 69 6.78 5.3 17 17 1028.1 0 15.8 24.4 34.6 90.4 79.2 270.6
08/05 01:30 10.8 68 6.72 5.1 17 20 1028.2 0 15.7 24.3 34.4 89.7 78.3 267.6
08/05 01:20 10.7 68 6.68 5 17 17 1028.1 0 15.6 24.2 34.3 89.4 77.9 266.1
08/05 01:10 11.2 66 6.69 5.1 17 19 1028.1 0 15.6 24.1 34.1 88.9 77.5 264.9
08/05 01:00 11.4 66 6.78 5.3 17 20 1028.1 0 15.8 24.2 34.3 89.6 78.5 268.3
08/05 00:50 11.3 67 6.84 5.4 17 19 1028.2 0 15.9 24.3 34.6 90.4 79.4 271.3
08/05 00:40 11 67 6.71 5.1 15 17 1028.3 0 15.7 24.2 34.2 89.4 78.0 266.5
08/05 00:30 11 67 6.71 5.1 15 17 1028.3 0 15.7 24.2 34.2 89.4 78.0 266.5
08/05 00:20 11.2 66 6.69 5.1 15 15 1028.3 0 15.6 24.1 34.1 88.9 77.5 264.9
08/05 00:10 11.2 66 6.69 5.1 15 15 1028.3 0 15.6 24.1 34.1 88.9 77.5 264.9
08/05 00:00 11.3 65 6.63 5 13 17 1028.3 0 15.5 24.0 33.8 88.2 76.7 261.9
07/05 23:50 11.6 65 6.76 5.3 15 15 1028.3 0 15.8 24.1 34.2 89.2 78.1 266.7
07/05 23:40 11.7 64 6.69 5.1 15 19 1028.3 0 15.6 24.0 33.9 88.4 77.1 263.2
07/05 23:30 12 64 6.82 5.4 15 19 1028.4 0 15.9 24.1 34.3 89.4 78.4 268.1
07/05 23:20 12 65 6.93 5.6 15 19 1028.3 0 16.1 24.3 34.7 90.5 79.8 273.0
07/05 23:10 11.4 65 6.67 5.1 11 13 1028.3 0 15.6 24.0 33.9 88.5 77.1 263.3
07/05 23:00 11.6 64 6.65 5 9 13 1028.2 0 15.5 24.0 33.8 88.1 76.6 261.8
07/05 22:50 11.8 63 6.63 5 9 11 1028.2 0 15.5 23.9 33.6 87.6 76.2 260.2
07/05 22:40 11.9 63 6.67 5.1 9 9 1028.2 0 15.5 23.9 33.7 87.9 76.6 261.7
07/05 22:30 11.9 64 6.78 5.3 9 13 1028.2 0 15.8 24.1 34.1 89.1 78.0 266.6
07/05 22:20 11.8 62 6.53 4.8 9 11 1028.1 0 15.3 23.7 33.2 86.6 74.9 255.7
07/05 22:10 12.2 62 6.69 5.1 11 13 1028 0 15.6 23.9 33.7 87.8 76.5 261.5
07/05 22:00 12.4 62 6.77 5.3 15 19 1028 0 15.7 23.9 33.9 88.4 77.4 264.4
07/05 21:50 11.7 63 6.59 4.9 15 17 1027.9 0 15.4 23.8 33.5 87.3 75.8 258.7
07/05 21:40 11.6 63 6.55 4.8 15 17 1027.8 0 15.3 23.8 33.4 87.0 75.3 257.2
07/05 21:30 12.1 62 6.65 5 13 17 1027.7 0 15.5 23.8 33.5 87.5 76.1 260.0
07/05 21:20 12.5 61 6.71 5.2 15 17 1027.7 0 15.6 23.8 33.6 87.6 76.5 261.4
07/05 21:10 12.8 60 6.72 5.2 17 19 1027.6 0 15.6 23.7 33.5 87.4 76.3 260.8
07/05 21:00 12.9 60 6.76 5.3 19 20 1027.5 0 15.7 23.8 33.6 87.7 76.7 262.2
07/05 20:50 13 59 6.69 5.2 19 20 1027.4 0 15.5 23.6 33.3 86.9 75.7 258.8
07/05 20:40 13.2 59 6.77 5.4 19 20 1027.3 0 15.7 23.7 33.5 87.5 76.5 261.7
07/05 20:30 13.4 58 6.74 5.3 19 22 1027.1 0 15.6 23.6 33.3 86.9 76.0 259.6
07/05 20:20 13.6 57 6.71 5.3 19 20 1027.2 0 15.6 23.5 33.1 86.4 75.4 257.7
07/05 20:10 13.9 56 6.71 5.3 19 20 1027.1 0 15.6 23.4 33.0 86.1 75.1 256.7
07/05 20:00 13.8 57 6.79 5.4 19 20 1026.9 0 15.7 23.6 33.3 87.0 76.2 260.5
07/05 19:50 13.7 57 6.75 5.3 19 20 1026.8 0 15.6 23.5 33.2 86.7 75.8 259.0
07/05 19:40 13.9 56 6.71 5.3 19 20 1026.7 0 15.6 23.4 33.0 86.0 75.1 256.6
07/05 19:30 14.1 55 6.68 5.2 19 20 1026.7 0 15.5 23.3 32.8 85.5 74.5 254.7
07/05 19:20 14.4 54 6.68 5.2 17 19 1026.6 0 15.5 23.2 32.7 85.2 74.2 253.7
07/05 19:10 14.6 54 6.76 5.4 19 20 1026.5 0 15.6 23.3 32.9 85.8 75.0 256.5
07/05 19:00 14.8 53 6.71 5.3 19 20 1026.4 0 15.5 23.2 32.6 85.0 74.2 253.7
07/05 18:50 15 52 6.67 5.2 19 19 1026.3 0 15.4 23.0 32.4 84.4 73.5 251.3
07/05 18:40 15.5 51 6.74 5.4 17 19 1026.2 0 15.6 23.0 32.4 84.6 73.9 252.8
07/05 18:30 15.9 50 6.77 5.5 19 20 1026.1 0 15.6 23.0 32.4 84.5 73.9 252.8
07/05 18:20 16.1 49 6.72 5.4 19 20 1026 0 15.5 22.8 32.1 83.8 73.1 250.0
07/05 18:10 16.3 47 6.52 5 19 19 1025.9 0 15.1 22.5 31.3 81.6 70.5 241.0
07/05 18:00 17 44 6.37 4.7 19 22 1025.9 0 14.7 22.1 30.5 79.5 68.1 232.7
07/05 17:50 18.3 41 6.41 4.8 19 20 1025.8 0 14.8 21.8 30.2 78.6 67.5 230.6
07/05 17:40 18.8 40 6.44 4.9 22 24 1025.8 0 14.8 21.8 30.1 78.4 67.4 230.4
07/05 17:30 19.3 39 6.47 5 19 24 1025.9 0 14.8 21.7 30.0 78.2 67.4 230.2
07/05 17:20 19.9 37 6.36 4.8 20 22 1025.8 0 14.6 21.4 29.4 76.6 65.6 224.2
07/05 17:10 20.3 36 6.33 4.8 20 28 1025.8 0 14.5 21.3 29.2 76.0 65.0 221.9
07/05 17:00 20.7 35 6.3 4.7 24 30 1025.8 0 14.4 21.1 28.9 75.3 64.3 219.7

Last Refresh: 08-May-2026 11:05:16

Bureau of Meteorology